Sadou, LA

8:51 AM CST on December 06, 2016 (GMT -0600)
Scott, LA | | Change Station
Active Advisory: Flood Warning

Elev 31 ft 30.23 °N, 92.13 °W | Updated 244 days ago

Overcast
Overcast
--
Feels Like --
N
-
Wind Variable Wind from North

Today
High -- | Low -- °F
--% Chance of Precip.
Yesterday
High -- | Low -- °F
Precip. -- in
Pressure 29.91 in
Visibility 10.0 miles
Clouds Overcast 1100 ft
Dew Point Not available.
Humidity Not available.
Rainfall in
Snow Depth Not available.
6:51 AM 5:08 PM
Waxing Crescent, 42% visible
METAR KLFT 061353Z 31004KT 10SM OVC011 12/11 A2991 RMK AO2 SLP128 T01220106
Pressure 29.91 in
Visibility 10.0 miles
Clouds Overcast 1100 ft
Dew Point Not available.
Humidity Not available.
Rainfall in
Snow Depth Not available.
6:51 AM 5:08 PM
Waxing Crescent, 42% visible
METAR KLFT 061353Z 31004KT 10SM OVC011 12/11 A2991 RMK AO2 SLP128 T01220106

10-Day Weather Forecast

Almanac

Astronomy

Dec. 06, 2016 Rise Set
Actual Time
Civil Twilight
Nautical Twilight
Astronomical Twilight
Moon
Length of Visible Light
Length of Day
Tomorrow will be .
, % of the Moon is Illuminated

Today's Extremes

State Highs State Lows

Community

WunderPhotos

Upload Photos

1,955,950 photos uploaded!

WunderBlog® & News

Nearby

Air Quality

  Air Quality AQ Index Pollutant
Not available.

Snow Depth

Station Depth Elevation

Earthquake Activity

City Distance Mag. Time & Date
Minimum magnitude displayed is 2.5.

Coastal Water Temperatures

Place Temperature

Stations

Nearby Weather Stations

Station Location Temp. Windchill Dew Point Humidity Wind Precip. Elev Updated Type
                   

Watches & Warnings

Flood Warning
Issued: 7:52 PM CST Dec. 5, 2016 – National Weather Service

The Flood Warning continues for
the Vermilion river at Lafayette, Surrey street gage.
* Until Wednesday afternoon... or until the warning is cancelled.
* At 7:15 PM Monday the stage was 10.9 feet.
* Minor flooding is occurring and minor flooding is forecast.
* Flood stage is 10.0 feet.
* Forecast... the river will continue to fall to below flood stage by
early Wednesday morning.
* Impact... at stages near 10.0 feet... minor flooding of heymann park
off of Highway 90 will occur.


Lat... Lon 3031 9204 3000 9227 2987 9219 2988 9206
      3022 9190 3031 9191